Time;durP1;ratioP1;P1;durP2;ratioP2;P2;SDS_P1;SDS_P2;PMS_P1;PMS_P2;Temp;Humidity;BMP_temperature;BMP_pressure;BME280_temperature;BME280_humidity;BME280_pressure;Samples;Min_cycle;Max_cycle;Signal;HPM_P1;HPM_P2
2022/07/08 00:00:09;;;;;;;10.45;2.10;;;15.30;99.90;;;;;;4973138;28;25064;-70
2022/07/08 00:02:34;;;;;;;9.88;2.10;;;15.40;99.90;;;;;;4981258;28;25092;-68
2022/07/08 00:05:00;;;;;;;10.70;2.83;;;15.30;99.90;;;;;;4981781;28;25088;-71
2022/07/08 00:07:26;;;;;;;8.77;2.45;;;15.30;99.90;;;;;;4974467;28;25070;-69
2022/07/08 00:09:51;;;;;;;8.00;2.42;;;15.30;99.90;;;;;;4985212;28;25067;-68
2022/07/08 00:12:17;;;;;;;11.45;2.47;;;15.30;99.90;;;;;;4990337;28;25082;-71
2022/07/08 00:14:43;;;;;;;12.02;2.35;;;15.30;99.90;;;;;;4980283;28;25064;-70
2022/07/08 00:17:08;;;;;;;11.75;2.72;;;15.30;99.90;;;;;;4980702;28;25121;-68
2022/07/08 00:19:34;;;;;;;11.95;2.45;;;15.30;99.90;;;;;;4978355;28;25105;-71
2022/07/08 00:22:00;;;;;;;12.48;2.58;;;15.30;99.90;;;;;;4976513;28;25091;-68
2022/07/08 00:24:25;;;;;;;14.25;2.90;;;15.30;99.90;;;;;;4971815;28;25069;-68
2022/07/08 00:26:51;;;;;;;13.38;3.00;;;15.40;99.90;;;;;;4981702;28;25093;-70
2022/07/08 00:29:17;;;;;;;11.98;2.38;;;15.40;99.90;;;;;;4980741;28;25055;-71
2022/07/08 00:31:42;;;;;;;14.57;2.60;;;15.40;99.90;;;;;;4983157;28;25058;-71
2022/07/08 00:34:08;;;;;;;7.60;2.60;;;15.30;99.90;;;;;;4991694;28;25077;-70
2022/07/08 00:36:35;;;;;;;9.00;2.28;;;15.30;99.90;;;;;;4986792;28;25096;-73
2022/07/08 00:39:02;;;;;;;8.48;2.10;;;15.40;99.90;;;;;;4988146;28;25057;-73
2022/07/08 00:41:28;;;;;;;9.38;2.45;;;15.40;99.90;;;;;;4994174;28;25055;-71
2022/07/08 00:43:54;;;;;;;13.77;2.58;;;15.40;99.90;;;;;;4994033;28;25067;-74
2022/07/08 00:46:21;;;;;;;12.82;2.50;;;15.30;99.90;;;;;;4999178;28;25058;-70
2022/07/08 00:48:46;;;;;;;11.38;2.88;;;15.30;99.90;;;;;;4999380;28;25056;-68
2022/07/08 00:51:15;;;;;;;11.73;2.55;;;15.30;99.90;;;;;;4984629;28;25052;-68
2022/07/08 00:53:44;;;;;;;8.82;2.20;;;15.20;99.90;;;;;;4973696;28;25126;-69
2022/07/08 00:56:10;;;;;;;11.20;2.30;;;15.20;99.90;;;;;;4981815;28;25068;-69
2022/07/08 00:58:37;;;;;;;10.75;2.42;;;15.20;99.90;;;;;;4975994;28;25074;-69
2022/07/08 01:01:03;;;;;;;11.38;2.42;;;15.20;99.90;;;;;;4984585;28;25082;-70
2022/07/08 01:03:30;;;;;;;11.88;2.47;;;15.10;99.90;;;;;;4975652;28;25059;-68
2022/07/08 01:05:55;;;;;;;15.20;2.55;;;15.10;99.90;;;;;;4982074;28;25144;-70
2022/07/08 01:08:22;;;;;;;5.68;2.03;;;15.10;99.90;;;;;;4980215;28;25075;-69
2022/07/08 01:10:48;;;;;;;11.90;2.63;;;15.10;99.90;;;;;;4982021;28;25050;-71
2022/07/08 01:13:14;;;;;;;8.32;2.53;;;15.10;99.90;;;;;;4980784;28;25081;-69
2022/07/08 01:15:40;;;;;;;14.82;3.47;;;15.10;99.90;;;;;;4982469;28;25138;-71
2022/07/08 01:18:06;;;;;;;12.32;2.22;;;15.20;99.90;;;;;;4980010;28;25066;-71
2022/07/08 01:20:35;;;;;;;13.57;2.55;;;15.20;99.90;;;;;;4977280;28;25080;-70
2022/07/08 01:23:00;;;;;;;9.52;2.20;;;15.10;99.90;;;;;;4979909;28;25056;-70
2022/07/08 01:25:27;;;;;;;13.52;2.22;;;15.10;99.90;;;;;;4971242;28;25087;-70
2022/07/08 01:27:54;;;;;;;13.93;2.30;;;15.10;99.90;;;;;;4976638;28;25167;-70
2022/07/08 01:30:19;;;;;;;12.63;2.88;;;15.20;99.90;;;;;;4993782;28;25052;-71
2022/07/08 01:32:45;;;;;;;14.35;2.53;;;15.20;99.90;;;;;;4971908;28;25074;-71
2022/07/08 01:35:11;;;;;;;9.40;2.20;;;15.30;99.90;;;;;;4970357;28;25096;-71
2022/07/08 01:37:37;;;;;;;10.18;3.53;;;15.10;99.90;;;;;;4970424;28;25138;-72
2022/07/08 01:40:03;;;;;;;13.45;2.58;;;15.10;99.90;;;;;;4973474;28;25063;-72
2022/07/08 01:42:29;;;;;;;15.75;3.50;;;15.10;99.90;;;;;;4989191;28;25077;-72
2022/07/08 01:44:55;;;;;;;11.63;2.00;;;15.00;99.90;;;;;;4994146;28;25094;-72
2022/07/08 01:47:21;;;;;;;15.75;2.38;;;14.80;99.90;;;;;;4970388;28;25104;-70
2022/07/08 01:49:47;;;;;;;8.57;2.72;;;14.80;99.90;;;;;;4977771;28;25061;-70
2022/07/08 01:52:12;;;;;;;11.48;2.80;;;14.70;99.90;;;;;;4970935;28;25079;-72
2022/07/08 01:54:38;;;;;;;11.57;2.05;;;14.70;99.90;;;;;;4965293;28;25067;-71
2022/07/08 01:57:18;;;;;;;8.27;2.15;;;14.70;99.90;;;;;;4969941;28;25072;-70
2022/07/08 01:59:48;;;;;;;7.70;2.03;;;14.80;99.90;;;;;;4978095;28;25065;-70
2022/07/08 02:02:17;;;;;;;10.43;2.90;;;14.90;99.90;;;;;;4970544;28;25112;-70
2022/07/08 02:04:43;;;;;;;9.45;2.22;;;14.90;99.90;;;;;;4972538;28;25071;-70
2022/07/08 02:07:09;;;;;;;11.40;2.28;;;14.80;99.90;;;;;;4978746;28;25072;-72
2022/07/08 02:09:36;;;;;;;13.55;2.50;;;14.90;99.90;;;;;;4978572;28;25062;-71
2022/07/08 02:12:21;;;;;;;6.93;2.05;;;14.90;99.90;;;;;;4973349;28;25076;-71
2022/07/08 02:15:03;;;;;;;8.27;2.60;;;14.80;99.90;;;;;;4973833;28;25077;-71
2022/07/08 02:17:31;;;;;;;14.75;2.80;;;14.80;99.90;;;;;;4988133;28;25046;-74
2022/07/08 02:19:57;;;;;;;12.57;2.50;;;14.80;99.90;;;;;;4991901;28;25102;-71
2022/07/08 02:22:22;;;;;;;9.27;2.50;;;14.70;99.90;;;;;;4971966;28;25094;-71
2022/07/08 02:24:48;;;;;;;9.95;2.33;;;14.80;99.90;;;;;;4977829;28;25067;-72
2022/07/08 02:27:14;;;;;;;14.70;2.60;;;14.90;99.90;;;;;;4969316;28;25073;-71
2022/07/08 02:29:40;;;;;;;12.23;2.38;;;14.80;99.90;;;;;;4980081;28;25057;-71
2022/07/08 02:32:06;;;;;;;21.00;3.10;;;14.70;99.90;;;;;;4973489;28;25128;-72
2022/07/08 02:34:32;;;;;;;14.65;2.90;;;14.70;99.90;;;;;;4974521;28;25065;-71
2022/07/08 02:36:58;;;;;;;11.90;2.70;;;14.60;99.90;;;;;;4993047;28;25064;-71
2022/07/08 02:39:23;;;;;;;10.85;2.33;;;14.50;99.90;;;;;;4979525;28;25120;-69
2022/07/08 02:41:49;;;;;;;13.02;2.35;;;14.40;99.90;;;;;;4982667;28;25065;-71
2022/07/08 02:44:15;;;;;;;9.90;2.60;;;14.40;99.90;;;;;;5007210;28;25055;-70
2022/07/08 02:46:41;;;;;;;10.88;2.78;;;14.50;99.90;;;;;;4992492;28;25056;-72
2022/07/08 02:49:11;;;;;;;9.60;2.95;;;14.50;99.90;;;;;;4991575;28;25093;-70
2022/07/08 02:51:37;;;;;;;14.52;2.50;;;14.50;99.90;;;;;;4989147;28;25056;-71
2022/07/08 02:54:04;;;;;;;13.32;2.70;;;14.40;99.90;;;;;;5008660;28;25048;-72
2022/07/08 02:56:30;;;;;;;12.80;2.25;;;14.40;99.90;;;;;;4979711;28;25112;-72
2022/07/08 02:58:56;;;;;;;12.85;2.78;;;14.40;99.90;;;;;;5002438;28;25068;-72
2022/07/08 03:01:22;;;;;;;8.55;2.40;;;14.50;99.90;;;;;;4993350;28;25063;-71
2022/07/08 03:03:47;;;;;;;7.93;2.28;;;14.50;99.90;;;;;;4982867;28;25377;-71
2022/07/08 03:06:13;;;;;;;11.68;2.42;;;14.40;99.90;;;;;;4977042;28;25055;-72
2022/07/08 03:08:39;;;;;;;12.15;3.05;;;14.40;99.90;;;;;;4984601;28;25102;-71
2022/07/08 03:11:05;;;;;;;8.68;2.47;;;14.40;99.90;;;;;;4984094;28;25144;-71
2022/07/08 03:13:31;;;;;;;12.57;2.70;;;14.30;99.90;;;;;;4992708;28;25097;-71
2022/07/08 03:15:58;;;;;;;10.38;2.70;;;14.20;99.90;;;;;;4969218;28;25155;-71
2022/07/08 03:18:24;;;;;;;9.82;2.83;;;14.20;99.90;;;;;;4986658;28;25105;-71
2022/07/08 03:20:50;;;;;;;11.00;2.60;;;14.20;99.90;;;;;;4976735;28;25075;-73
2022/07/08 03:23:15;;;;;;;15.25;2.67;;;14.10;99.90;;;;;;4977172;28;25054;-70
2022/07/08 03:25:41;;;;;;;8.70;2.40;;;14.10;99.90;;;;;;4967343;28;25152;-70
2022/07/08 03:28:07;;;;;;;8.13;2.55;;;14.10;99.90;;;;;;4981713;28;25145;-70
2022/07/08 03:30:33;;;;;;;10.70;3.05;;;14.10;99.90;;;;;;4976089;28;25068;-70
2022/07/08 03:32:58;;;;;;;17.63;2.80;;;14.10;99.90;;;;;;4976124;28;25142;-70
2022/07/08 03:35:24;;;;;;;12.13;2.80;;;14.10;99.90;;;;;;4974358;28;25081;-69
2022/07/08 03:37:50;;;;;;;10.02;2.78;;;14.10;99.90;;;;;;4972316;28;25120;-70
2022/07/08 03:43:00;;;;;;;8.15;2.38;;;14.00;99.90;;;;;;4981144;28;25057;-68
2022/07/08 03:45:26;;;;;;;9.00;3.17;;;14.10;99.90;;;;;;4965332;28;25066;-69
2022/07/08 03:47:52;;;;;;;13.02;3.60;;;14.00;99.90;;;;;;4983090;28;25360;-70
2022/07/08 03:50:18;;;;;;;11.52;3.10;;;14.00;99.90;;;;;;4990173;28;25064;-69
2022/07/08 03:52:45;;;;;;;7.65;2.47;;;14.00;99.90;;;;;;4999068;28;25086;-69
2022/07/08 03:55:11;;;;;;;12.20;2.65;;;14.00;99.90;;;;;;4990779;28;25105;-69
2022/07/08 03:57:37;;;;;;;9.00;2.70;;;14.10;99.90;;;;;;4974211;28;25114;-68
2022/07/08 04:00:05;;;;;;;9.40;2.70;;;14.20;99.90;;;;;;4976680;28;25060;-71
2022/07/08 04:02:30;;;;;;;8.93;2.58;;;14.40;99.90;;;;;;4974371;28;25090;-68
2022/07/08 04:04:56;;;;;;;5.80;2.47;;;14.20;99.90;;;;;;4964518;28;25061;-69
2022/07/08 04:07:22;;;;;;;16.30;3.38;;;14.20;99.90;;;;;;4973170;28;25095;-71
2022/07/08 04:09:48;;;;;;;13.93;2.95;;;14.40;99.90;;;;;;4977634;28;25094;-68
2022/07/08 04:12:13;;;;;;;12.52;3.25;;;14.40;99.90;;;;;;4976912;28;25081;-68
2022/07/08 04:14:39;;;;;;;11.98;2.67;;;14.40;99.90;;;;;;4976894;28;25150;-69
2022/07/08 04:17:04;;;;;;;10.00;2.75;;;14.50;99.90;;;;;;4967143;28;25099;-69
2022/07/08 04:19:30;;;;;;;14.60;3.72;;;14.50;99.90;;;;;;4970548;28;25064;-69
2022/07/08 04:21:56;;;;;;;11.43;3.10;;;14.50;99.90;;;;;;4966264;28;25143;-69
2022/07/08 04:24:22;;;;;;;11.25;2.67;;;14.50;99.90;;;;;;4974811;28;25122;-68
2022/07/08 04:26:47;;;;;;;10.45;2.78;;;14.50;99.90;;;;;;4978531;28;25068;-70
2022/07/08 04:29:13;;;;;;;9.63;2.85;;;14.50;99.90;;;;;;4977250;28;25053;-71
2022/07/08 04:31:39;;;;;;;15.85;4.05;;;14.50;99.90;;;;;;4968567;28;25105;-69
2022/07/08 04:34:04;;;;;;;11.90;2.80;;;14.50;99.90;;;;;;4967970;28;25089;-69
2022/07/08 04:36:30;;;;;;;16.05;3.53;;;14.60;99.90;;;;;;4973017;28;25074;-70
2022/07/08 04:38:56;;;;;;;8.82;3.00;;;14.60;99.90;;;;;;4970901;28;25059;-69
2022/07/08 04:41:22;;;;;;;8.73;3.33;;;14.70;99.90;;;;;;4972110;28;25171;-70
2022/07/08 04:43:47;;;;;;;12.13;3.17;;;14.70;99.90;;;;;;4970213;28;25063;-70
2022/07/08 04:46:13;;;;;;;16.15;3.85;;;14.80;99.90;;;;;;4971760;28;25071;-70
2022/07/08 04:48:41;;;;;;;11.07;3.28;;;14.80;99.90;;;;;;4971900;28;25131;-70
2022/07/08 04:51:06;;;;;;;9.52;3.03;;;14.80;99.90;;;;;;4986954;28;25074;-68
2022/07/08 04:53:32;;;;;;;12.65;3.20;;;14.90;99.90;;;;;;4990947;28;25060;-68
2022/07/08 04:55:58;;;;;;;11.85;3.67;;;14.90;99.90;;;;;;4997326;28;25094;-69
2022/07/08 04:58:23;;;;;;;19.77;3.28;;;15.00;99.90;;;;;;4981525;28;25135;-69
2022/07/08 05:00:49;;;;;;;15.95;3.10;;;15.00;99.90;;;;;;4983765;28;25050;-70
2022/07/08 05:03:15;;;;;;;14.18;5.13;;;15.10;99.90;;;;;;4974556;28;25067;-70
2022/07/08 05:05:41;;;;;;;12.75;2.90;;;15.30;99.90;;;;;;4971142;28;25133;-71
2022/07/08 05:08:06;;;;;;;19.65;3.55;;;15.40;99.90;;;;;;4968268;28;25111;-70
2022/07/08 05:10:32;;;;;;;13.90;3.13;;;15.40;99.90;;;;;;4969716;28;25102;-69
2022/07/08 05:12:58;;;;;;;15.18;3.75;;;15.50;99.90;;;;;;4981069;28;25135;-69
2022/07/08 05:15:25;;;;;;;11.85;3.33;;;15.50;99.90;;;;;;4966466;28;25054;-69
2022/07/08 05:17:52;;;;;;;11.52;3.20;;;15.50;99.90;;;;;;4967449;28;25070;-69
2022/07/08 05:20:19;;;;;;;13.75;3.40;;;15.60;99.90;;;;;;4965738;28;25082;-67
2022/07/08 05:22:45;;;;;;;18.95;3.00;;;15.70;99.90;;;;;;4966006;28;25159;-69
2022/07/08 05:25:11;;;;;;;15.80;4.07;;;15.70;99.90;;;;;;4967442;28;25156;-71
2022/07/08 05:27:38;;;;;;;17.48;3.92;;;15.90;99.90;;;;;;4967048;28;25122;-70
2022/07/08 05:30:05;;;;;;;13.02;2.88;;;16.00;99.90;;;;;;4971058;28;25124;-71
2022/07/08 05:32:31;;;;;;;14.60;3.33;;;16.10;99.90;;;;;;4967152;28;25063;-68
2022/07/08 05:34:57;;;;;;;14.88;4.10;;;16.10;99.90;;;;;;4965108;28;25061;-69
2022/07/08 05:37:23;;;;;;;13.65;3.10;;;16.20;99.90;;;;;;4968686;28;25073;-73
2022/07/08 05:39:48;;;;;;;11.40;2.92;;;16.30;99.90;;;;;;4968765;28;25075;-70
2022/07/08 05:42:14;;;;;;;12.77;2.88;;;16.30;99.90;;;;;;4969862;28;25060;-71
2022/07/08 05:44:40;;;;;;;17.80;4.00;;;16.50;99.90;;;;;;4964628;28;25096;-70
2022/07/08 05:47:10;;;;;;;14.90;2.85;;;16.50;99.90;;;;;;4975784;28;25059;-70
2022/07/08 05:49:37;;;;;;;14.70;2.95;;;16.50;99.90;;;;;;4977636;28;25154;-73
2022/07/08 05:52:03;;;;;;;14.80;3.50;;;16.60;99.90;;;;;;4972592;28;25102;-70
2022/07/08 05:54:29;;;;;;;13.13;2.85;;;16.70;99.90;;;;;;4981048;28;25154;-70
2022/07/08 05:56:55;;;;;;;12.07;2.92;;;16.70;99.90;;;;;;4979740;28;25188;-68
2022/07/08 05:59:21;;;;;;;11.68;2.22;;;16.80;99.90;;;;;;4980399;28;24921;-71
2022/07/08 06:01:47;;;;;;;15.32;2.90;;;16.70;99.90;;;;;;4973327;28;25137;-70
2022/07/08 06:04:12;;;;;;;15.20;2.70;;;16.70;99.90;;;;;;4978462;28;25138;-68
2022/07/08 06:06:38;;;;;;;12.27;2.70;;;16.80;99.90;;;;;;4972352;28;25117;-72
2022/07/08 06:09:04;;;;;;;14.20;2.50;;;17.00;99.90;;;;;;4995208;28;25110;-72
2022/07/08 06:11:30;;;;;;;14.00;2.70;;;17.20;99.90;;;;;;4979102;28;25066;-70
2022/07/08 06:13:55;;;;;;;8.13;2.53;;;17.30;99.90;;;;;;4978036;28;25123;-71
2022/07/08 06:16:22;;;;;;;9.93;2.63;;;17.60;99.90;;;;;;4978230;28;25158;-69
2022/07/08 06:18:48;;;;;;;14.35;3.40;;;17.90;99.90;;;;;;4973105;28;25061;-70
2022/07/08 06:21:13;;;;;;;9.82;2.25;;;18.00;99.90;;;;;;4977709;28;25128;-68
2022/07/08 06:23:39;;;;;;;15.40;2.72;;;18.20;99.90;;;;;;4970602;28;25061;-70
2022/07/08 06:26:05;;;;;;;15.05;2.95;;;18.10;99.90;;;;;;4979373;28;25052;-69
2022/07/08 06:28:31;;;;;;;9.50;2.33;;;18.30;99.90;;;;;;4973552;28;25065;-69
2022/07/08 06:30:56;;;;;;;16.65;2.88;;;18.30;99.90;;;;;;4975138;28;25107;-69
2022/07/08 06:33:22;;;;;;;22.75;4.00;;;18.50;99.90;;;;;;4967608;28;25129;-69
2022/07/08 06:35:48;;;;;;;10.25;2.90;;;18.40;99.90;;;;;;4974990;28;25074;-70
2022/07/08 06:38:14;;;;;;;9.25;2.40;;;18.70;99.90;;;;;;4969892;28;25053;-68
2022/07/08 06:40:39;;;;;;;17.50;3.58;;;18.50;99.90;;;;;;4974642;28;25084;-71
2022/07/08 06:43:05;;;;;;;15.00;2.58;;;18.30;99.90;;;;;;4971625;28;25070;-69
2022/07/08 06:45:32;;;;;;;9.93;2.72;;;18.30;99.90;;;;;;4968783;28;25114;-68
2022/07/08 06:48:02;;;;;;;13.90;3.00;;;18.70;99.90;;;;;;4980033;28;25122;-68
2022/07/08 06:50:28;;;;;;;10.25;2.15;;;19.00;99.90;;;;;;4971470;28;25061;-70
2022/07/08 06:52:53;;;;;;;15.05;3.97;;;18.80;99.90;;;;;;4973342;28;25147;-70
2022/07/08 06:55:20;;;;;;;14.10;2.90;;;18.50;99.90;;;;;;4977879;28;25136;-69
2022/07/08 06:57:46;;;;;;;13.02;3.00;;;18.40;99.90;;;;;;4979001;28;25107;-72
2022/07/08 07:00:12;;;;;;;14.95;2.80;;;18.70;99.90;;;;;;4979876;28;25065;-69
2022/07/08 07:02:38;;;;;;;9.75;2.35;;;18.70;99.90;;;;;;4995664;28;25077;-69
2022/07/08 07:05:04;;;;;;;9.00;2.20;;;18.60;99.90;;;;;;4973661;28;25140;-70
2022/07/08 07:07:29;;;;;;;11.32;1.67;;;18.50;99.90;;;;;;4978780;28;25149;-68
2022/07/08 07:09:56;;;;;;;10.48;2.53;;;18.40;99.90;;;;;;4985001;28;25081;-70
2022/07/08 07:12:22;;;;;;;8.82;2.28;;;18.50;99.90;;;;;;4990389;28;25070;-69
2022/07/08 07:14:48;;;;;;;13.65;2.25;;;18.50;99.90;;;;;;4999775;28;25114;-71
2022/07/08 07:17:20;;;;;;;10.07;2.00;;;18.50;99.90;;;;;;4991583;28;25072;-71
2022/07/08 07:19:46;;;;;;;;;;;19.10;99.90;;;;;;4999585;28;25083;-70
2022/07/08 07:22:12;;;;;;;14.43;2.10;;;19.60;99.90;;;;;;4992805;28;24107;-70
2022/07/08 07:24:38;;;;;;;10.93;2.20;;;20.00;99.90;;;;;;4985363;28;25078;-68
2022/07/08 07:27:04;;;;;;;12.50;2.50;;;20.30;99.90;;;;;;4982332;28;25087;-70
2022/07/08 07:29:30;;;;;;;8.35;2.35;;;20.40;99.90;;;;;;4977703;28;25157;-68
2022/07/08 07:31:55;;;;;;;15.88;2.67;;;19.90;99.90;;;;;;4977413;28;25111;-69
2022/07/08 07:34:21;;;;;;;11.35;2.58;;;20.30;99.90;;;;;;4973532;28;25104;-68
2022/07/08 07:36:46;;;;;;;9.52;2.60;;;20.50;99.90;;;;;;4980528;28;25122;-69
2022/07/08 07:39:12;;;;;;;6.35;2.42;;;20.60;99.90;;;;;;4970440;28;25096;-68
2022/07/08 07:41:38;;;;;;;12.35;2.72;;;20.40;99.90;;;;;;4981737;28;25170;-67
2022/07/08 07:44:04;;;;;;;8.63;3.08;;;20.10;99.90;;;;;;4975994;28;25066;-70
2022/07/08 07:46:31;;;;;;;10.55;2.30;;;19.90;99.90;;;;;;4974331;28;25063;-73
2022/07/08 07:48:57;;;;;;;8.75;2.15;;;19.60;99.90;;;;;;4968643;28;25100;-69
2022/07/08 07:51:23;;;;;;;11.80;3.25;;;19.60;99.90;;;;;;4967587;28;25124;-71
2022/07/08 07:53:48;;;;;;;10.98;2.58;;;19.80;99.90;;;;;;4972226;28;25059;-68
2022/07/08 07:56:14;;;;;;;9.88;2.25;;;19.60;99.90;;;;;;4979209;28;25067;-69
2022/07/08 07:58:40;;;;;;;15.25;2.38;;;19.10;99.90;;;;;;4967022;28;25067;-68
2022/07/08 08:01:06;;;;;;;8.48;1.88;;;19.40;99.90;;;;;;4979895;28;25067;-69
2022/07/08 08:03:31;;;;;;;10.02;2.08;;;20.30;99.90;;;;;;4970386;28;25070;-71
2022/07/08 08:05:58;;;;;;;16.63;2.67;;;21.10;99.90;;;;;;4988869;28;25078;-70
2022/07/08 08:08:24;;;;;;;8.32;1.98;;;21.20;99.90;;;;;;4977502;28;25056;-70
2022/07/08 08:10:51;;;;;;;14.82;2.35;;;21.30;99.90;;;;;;4979954;28;25086;-73
2022/07/08 08:13:18;;;;;;;9.70;2.13;;;21.70;99.90;;;;;;4975362;28;25054;-72
2022/07/08 08:15:43;;;;;;;8.60;2.30;;;22.10;99.90;;;;;;4984670;28;25069;-70
2022/07/08 08:18:09;;;;;;;9.18;2.30;;;22.40;99.90;;;;;;4977574;28;25122;-72
2022/07/08 08:20:35;;;;;;;11.63;2.20;;;22.40;99.90;;;;;;4984615;28;25135;-73
2022/07/08 08:23:01;;;;;;;7.30;2.10;;;22.50;99.90;;;;;;4981998;28;25085;-72
2022/07/08 08:25:27;;;;;;;7.78;2.22;;;23.00;99.90;;;;;;4984932;28;25073;-70
2022/07/08 08:27:54;;;;;;;8.27;1.95;;;23.10;99.90;;;;;;4983672;28;25139;-72
2022/07/08 08:30:20;;;;;;;14.15;2.38;;;23.00;99.90;;;;;;4988281;28;25071;-73
2022/07/08 08:32:46;;;;;;;9.15;2.28;;;23.00;99.90;;;;;;4984689;28;25124;-72
2022/07/08 08:35:12;;;;;;;9.93;2.35;;;23.20;99.90;;;;;;4975978;28;25139;-70
2022/07/08 08:37:37;;;;;;;14.18;1.98;;;23.60;99.90;;;;;;4992318;28;25064;-72
2022/07/08 08:40:04;;;;;;;10.40;1.90;;;22.10;99.90;;;;;;4984938;28;25095;-71
2022/07/08 08:42:33;;;;;;;4.97;1.75;;;22.30;99.90;;;;;;4992719;28;25069;-72
2022/07/08 08:45:02;;;;;;;8.25;2.47;;;22.00;99.90;;;;;;5014030;28;25065;-74
2022/07/08 08:47:30;;;;;;;7.30;2.03;;;22.10;99.90;;;;;;5000254;28;25059;-71
2022/07/08 08:49:57;;;;;;;10.40;2.25;;;22.60;99.90;;;;;;4988693;28;25066;-71
2022/07/08 08:52:23;;;;;;;6.63;2.08;;;23.30;99.90;;;;;;5001398;28;25080;-71
2022/07/08 08:54:51;;;;;;;11.82;2.50;;;23.10;99.90;;;;;;4982891;28;25151;-71
2022/07/08 08:57:18;;;;;;;12.48;2.72;;;23.10;99.90;;;;;;4976007;28;25112;-71
2022/07/08 08:59:46;;;;;;;6.53;1.75;;;23.30;99.90;;;;;;4986709;28;25058;-68
2022/07/08 09:02:12;;;;;;;8.90;2.13;;;22.90;99.90;;;;;;4985022;28;25070;-73
2022/07/08 09:04:38;;;;;;;17.52;1.95;;;23.40;99.90;;;;;;4982261;28;25072;-73
2022/07/08 09:07:04;;;;;;;9.27;2.58;;;23.80;99.50;;;;;;4982571;28;25105;-73
2022/07/08 09:09:30;;;;;;;7.32;2.28;;;23.80;99.30;;;;;;4984007;28;25072;-69
2022/07/08 09:11:56;;;;;;;13.90;2.58;;;24.00;99.50;;;;;;4975934;28;25113;-72
2022/07/08 09:14:23;;;;;;;9.25;2.33;;;24.50;97.40;;;;;;4982085;28;25050;-71
2022/07/08 09:17:12;;;;;;;7.78;1.85;;;24.20;96.60;;;;;;4987468;28;25056;-72
2022/07/08 09:19:40;;;;;;;6.72;2.10;;;23.30;98.50;;;;;;4982602;28;25070;-71
2022/07/08 09:22:07;;;;;;;10.10;2.10;;;22.70;98.00;;;;;;4984279;28;25077;-70
2022/07/08 09:24:34;;;;;;;8.93;2.00;;;22.50;99.90;;;;;;4981426;28;25089;-70
2022/07/08 09:27:05;;;;;;;8.57;2.15;;;22.20;99.90;;;;;;4976730;28;25081;-69
2022/07/08 09:29:31;;;;;;;8.07;2.35;;;22.50;99.90;;;;;;4980776;28;25092;-71
2022/07/08 09:32:12;;;;;;;6.82;1.85;;;22.50;99.90;;;;;;4978582;28;25128;-71
2022/07/08 09:34:38;;;;;;;8.15;2.40;;;22.30;99.90;;;;;;4975745;28;25074;-69
2022/07/08 09:37:16;;;;;;;10.13;1.95;;;21.90;99.90;;;;;;4978436;28;25170;-70
2022/07/08 09:39:43;;;;;;;10.65;2.83;;;22.30;99.90;;;;;;4989156;28;25145;-73
2022/07/08 09:42:10;;;;;;;5.65;1.67;;;23.10;99.90;;;;;;4982325;28;25052;-70
2022/07/08 09:44:36;;;;;;;8.32;2.35;;;23.40;99.20;;;;;;4985128;28;25064;-72
2022/07/08 09:47:15;;;;;;;8.80;2.03;;;24.00;97.20;;;;;;4975322;28;25126;-72
2022/07/08 09:49:45;;;;;;;9.25;2.15;;;24.00;95.10;;;;;;4979516;28;25123;-70
2022/07/08 09:52:19;;;;;;;6.82;1.80;;;23.90;94.60;;;;;;4980597;28;25073;-73
2022/07/08 09:54:45;;;;;;;6.65;2.10;;;24.10;94.40;;;;;;4980624;28;25096;-73
2022/07/08 09:57:14;;;;;;;9.90;2.05;;;24.40;93.40;;;;;;4976607;28;25096;-69
2022/07/08 09:59:40;;;;;;;6.97;2.17;;;24.60;92.40;;;;;;4982578;28;25108;-71
2022/07/08 10:02:05;;;;;;;6.90;1.98;;;24.60;93.50;;;;;;4969754;28;25083;-70
2022/07/08 10:04:31;;;;;;;8.23;2.03;;;24.80;92.00;;;;;;4980993;28;25076;-70
2022/07/08 10:06:58;;;;;;;6.13;1.50;;;25.00;90.80;;;;;;4976406;28;25047;-70
2022/07/08 10:09:26;;;;;;;6.15;1.77;;;25.00;88.10;;;;;;4977472;28;25162;-69
2022/07/08 10:11:53;;;;;;;2.85;1.73;;;25.40;85.80;;;;;;4971630;28;25107;-69
2022/07/08 10:14:19;;;;;;;8.13;2.08;;;24.50;82.70;;;;;;4975811;28;25133;-70
2022/07/08 10:16:49;;;;;;;4.47;1.60;;;23.80;90.60;;;;;;4977483;28;25072;-70
2022/07/08 10:19:24;;;;;;;6.15;1.65;;;24.30;91.10;;;;;;4974436;28;25077;-68
2022/07/08 10:21:53;;;;;;;6.18;1.77;;;23.90;89.30;;;;;;4979064;28;25146;-69
2022/07/08 10:24:23;;;;;;;8.73;1.95;;;23.70;90.90;;;;;;4966196;28;25146;-70
2022/07/08 10:26:49;;;;;;;5.78;1.52;;;23.40;91.30;;;;;;4980253;28;25071;-71
2022/07/08 10:29:15;;;;;;;6.43;2.03;;;23.90;91.80;;;;;;4979779;28;25101;-70
2022/07/08 10:31:50;;;;;;;6.55;1.70;;;24.60;90.10;;;;;;4980944;28;25057;-71
2022/07/08 10:34:21;;;;;;;6.75;1.73;;;24.60;89.40;;;;;;4989996;28;25067;-69
2022/07/08 10:36:50;;;;;;;13.95;2.55;;;25.00;89.10;;;;;;4977637;28;25074;-70
2022/07/08 10:39:28;;;;;;;4.97;1.83;;;24.50;88.10;;;;;;4972705;28;25146;-73
2022/07/08 10:42:05;;;;;;;6.47;1.45;;;25.20;83.30;;;;;;4974540;28;25156;-71
2022/07/08 10:44:45;;;;;;;5.60;1.52;;;25.30;79.60;;;;;;4977945;28;25065;-68
2022/07/08 10:47:15;;;;;;;4.18;1.98;;;25.00;80.50;;;;;;4978529;28;25054;-70
2022/07/08 10:49:41;;;;;;;7.28;2.20;;;24.40;85.30;;;;;;4982183;28;24922;-68
2022/07/08 10:52:07;;;;;;;7.20;2.00;;;24.10;86.60;;;;;;4994162;28;25069;-70
2022/07/08 10:54:37;;;;;;;4.38;1.85;;;24.20;86.60;;;;;;4980834;28;25094;-70
2022/07/08 10:57:27;;;;;;;3.70;1.50;;;24.30;86.70;;;;;;4976940;28;25085;-69
2022/07/08 11:00:13;;;;;;;3.00;2.05;;;24.70;84.50;;;;;;4972047;28;25071;-69
2022/07/08 11:02:44;;;;;;;9.95;2.28;;;24.30;81.90;;;;;;4963991;28;25073;-69
2022/07/08 11:05:39;;;;;;;5.95;2.22;;;24.70;86.70;;;;;;4974626;28;25087;-70
2022/07/08 11:08:20;;;;;;;10.65;1.85;;;25.70;76.20;;;;;;4973217;28;25053;-70
2022/07/08 11:10:49;;;;;;;6.03;2.05;;;26.00;69.30;;;;;;4973438;28;25065;-70
2022/07/08 11:13:15;;;;;;;6.22;1.60;;;25.20;70.10;;;;;;4978364;28;25076;-70
2022/07/08 11:15:41;;;;;;;3.08;1.40;;;25.40;76.70;;;;;;4973111;28;25070;-70
2022/07/08 11:18:07;;;;;;;6.10;1.98;;;26.00;70.40;;;;;;4979253;28;25067;-69
2022/07/08 11:20:35;;;;;;;8.05;1.95;;;26.30;63.50;;;;;;4977708;28;25089;-69
2022/07/08 11:23:05;;;;;;;5.90;1.88;;;26.80;57.40;;;;;;4975741;28;25062;-70
2022/07/08 11:25:30;;;;;;;7.13;2.58;;;25.70;60.00;;;;;;4982359;28;25106;-70
2022/07/08 11:27:56;;;;;;;6.03;1.60;;;25.50;71.70;;;;;;4984644;28;25100;-70
2022/07/08 11:30:22;;;;;;;5.43;1.98;;;25.50;73.80;;;;;;4989690;28;25084;-69
2022/07/08 11:32:49;;;;;;;9.50;1.90;;;25.00;76.30;;;;;;4985788;28;25106;-71
2022/07/08 11:35:17;;;;;;;5.65;2.13;;;25.30;80.00;;;;;;5002524;28;25053;-71
2022/07/08 11:37:44;;;;;;;9.02;2.22;;;24.90;80.20;;;;;;4990508;28;25059;-70
2022/07/08 11:40:11;;;;;;;4.88;2.20;;;25.10;85.00;;;;;;4992840;28;25085;-70
2022/07/08 11:42:38;;;;;;;6.65;2.22;;;25.50;78.30;;;;;;4989582;28;25085;-72
2022/07/08 11:45:05;;;;;;;9.13;1.85;;;25.70;83.30;;;;;;4988452;28;25080;-69
2022/07/08 11:47:31;;;;;;;5.70;2.15;;;25.90;79.40;;;;;;4975686;28;25062;-70
2022/07/08 11:49:56;;;;;;;9.32;1.95;;;26.10;78.50;;;;;;4985428;28;25142;-71
2022/07/08 11:52:22;;;;;;;6.32;2.17;;;26.40;73.60;;;;;;4983343;28;25070;-69
2022/07/08 11:54:48;;;;;;;5.38;3.00;;;25.60;77.50;;;;;;4978735;28;25057;-69
2022/07/08 11:57:19;;;;;;;8.93;2.65;;;25.50;76.90;;;;;;4978660;28;25069;-69
2022/07/08 11:59:46;;;;;;;14.95;2.13;;;24.70;81.80;;;;;;4980182;28;25135;-71
2022/07/08 12:02:12;;;;;;;6.88;2.08;;;24.10;88.40;;;;;;4976623;28;25070;-70
2022/07/08 12:04:43;;;;;;;10.02;2.20;;;24.50;88.40;;;;;;4978518;28;25049;-71
2022/07/08 12:07:26;;;;;;;5.22;1.80;;;25.00;85.80;;;;;;4993651;28;25060;-69
2022/07/08 12:09:57;;;;;;;5.13;1.83;;;25.60;81.60;;;;;;4978705;28;25061;-69
2022/07/08 12:12:24;;;;;;;7.20;2.00;;;25.60;74.00;;;;;;4982608;28;25096;-71
2022/07/08 12:14:50;;;;;;;8.27;2.17;;;25.90;77.70;;;;;;4975564;28;25075;-69
2022/07/08 12:17:23;;;;;;;11.27;2.25;;;25.60;76.00;;;;;;4987006;28;25074;-69
2022/07/08 12:19:52;;;;;;;3.88;1.50;;;25.50;82.80;;;;;;4987954;28;25075;-70
2022/07/08 12:22:44;;;;;;;1.88;1.08;;;26.20;75.30;;;;;;4994235;28;25067;-71
2022/07/08 12:25:14;;;;;;;8.50;2.35;;;25.70;75.60;;;;;;4983857;28;25070;-70
2022/07/08 12:27:40;;;;;;;7.55;1.85;;;25.60;71.80;;;;;;4983839;28;25059;-68
2022/07/08 12:30:07;;;;;;;9.27;2.00;;;25.30;73.70;;;;;;4997566;28;25062;-68
2022/07/08 12:32:40;;;;;;;3.75;1.98;;;25.30;74.50;;;;;;4983439;28;25085;-69
2022/07/08 12:35:11;;;;;;;4.70;1.55;;;25.30;77.80;;;;;;4984301;28;25048;-69
2022/07/08 12:37:37;;;;;;;4.32;1.40;;;25.30;72.00;;;;;;5003278;28;25126;-68
2022/07/08 12:40:17;;;;;;;11.95;1.70;;;24.90;74.70;;;;;;4995540;28;25079;-70
2022/07/08 12:43:04;;;;;;;2.67;1.30;;;25.40;70.60;;;;;;4989166;28;25055;-67
2022/07/08 12:45:30;;;;;;;2.30;1.27;;;24.70;71.40;;;;;;4977403;28;25160;-69